sensor_id;sensor_type;location;lat;lon;timestamp;P1;durP1;ratioP1;P2;durP2;ratioP2
35917;SDS011;22011;59.912;30.300;2022-12-18T00:00:00;14.48;;;6.95;;
35917;SDS011;22011;59.912;30.300;2022-12-18T00:02:27;13.05;;;7.85;;
35917;SDS011;22011;59.912;30.300;2022-12-18T00:04:56;12.05;;;6.72;;
35917;SDS011;22011;59.912;30.300;2022-12-18T00:07:24;12.40;;;7.30;;
35917;SDS011;22011;59.912;30.300;2022-12-18T00:09:52;13.60;;;6.95;;
35917;SDS011;22011;59.912;30.300;2022-12-18T00:12:19;13.77;;;6.80;;
35917;SDS011;22011;59.912;30.300;2022-12-18T00:14:47;12.55;;;7.15;;
35917;SDS011;22011;59.912;30.300;2022-12-18T00:17:14;13.18;;;7.10;;
35917;SDS011;22011;59.912;30.300;2022-12-18T00:19:42;14.60;;;7.40;;
35917;SDS011;22011;59.912;30.300;2022-12-18T00:22:11;10.70;;;6.63;;
35917;SDS011;22011;59.912;30.300;2022-12-18T00:24:38;11.30;;;6.70;;
35917;SDS011;22011;59.912;30.300;2022-12-18T00:27:06;13.00;;;6.43;;
35917;SDS011;22011;59.912;30.300;2022-12-18T00:29:34;13.40;;;6.75;;
35917;SDS011;22011;59.912;30.300;2022-12-18T00:32:01;15.18;;;6.70;;
35917;SDS011;22011;59.912;30.300;2022-12-18T00:34:29;10.55;;;6.70;;
35917;SDS011;22011;59.912;30.300;2022-12-18T00:36:57;13.45;;;7.20;;
35917;SDS011;22011;59.912;30.300;2022-12-18T00:39:25;13.27;;;7.07;;
35917;SDS011;22011;59.912;30.300;2022-12-18T00:41:53;20.83;;;8.20;;
35917;SDS011;22011;59.912;30.300;2022-12-18T00:44:38;14.10;;;7.60;;
35917;SDS011;22011;59.912;30.300;2022-12-18T00:47:06;12.73;;;7.78;;
35917;SDS011;22011;59.912;30.300;2022-12-18T00:49:33;12.48;;;7.20;;
35917;SDS011;22011;59.912;30.300;2022-12-18T00:52:01;11.85;;;7.85;;
35917;SDS011;22011;59.912;30.300;2022-12-18T00:54:30;12.68;;;6.63;;
35917;SDS011;22011;59.912;30.300;2022-12-18T00:56:57;13.82;;;7.30;;
35917;SDS011;22011;59.912;30.300;2022-12-18T00:59:25;11.25;;;7.00;;
35917;SDS011;22011;59.912;30.300;2022-12-18T01:01:52;14.13;;;7.88;;
35917;SDS011;22011;59.912;30.300;2022-12-18T01:04:20;13.02;;;6.90;;
35917;SDS011;22011;59.912;30.300;2022-12-18T01:06:47;14.38;;;7.75;;
35917;SDS011;22011;59.912;30.300;2022-12-18T01:09:15;11.40;;;6.72;;
35917;SDS011;22011;59.912;30.300;2022-12-18T01:11:44;18.25;;;7.72;;
35917;SDS011;22011;59.912;30.300;2022-12-18T01:14:11;11.98;;;7.72;;
35917;SDS011;22011;59.912;30.300;2022-12-18T01:16:42;12.45;;;7.57;;
35917;SDS011;22011;59.912;30.300;2022-12-18T01:19:10;16.70;;;8.55;;
35917;SDS011;22011;59.912;30.300;2022-12-18T01:21:37;15.68;;;8.40;;
35917;SDS011;22011;59.912;30.300;2022-12-18T01:24:05;18.88;;;9.63;;
35917;SDS011;22011;59.912;30.300;2022-12-18T01:26:33;18.92;;;10.82;;
35917;SDS011;22011;59.912;30.300;2022-12-18T01:29:02;19.08;;;10.43;;
35917;SDS011;22011;59.912;30.300;2022-12-18T01:31:31;23.48;;;11.10;;
35917;SDS011;22011;59.912;30.300;2022-12-18T01:34:02;18.77;;;10.27;;
35917;SDS011;22011;59.912;30.300;2022-12-18T01:36:31;18.42;;;10.43;;
35917;SDS011;22011;59.912;30.300;2022-12-18T01:39:00;17.35;;;9.80;;
35917;SDS011;22011;59.912;30.300;2022-12-18T01:41:29;16.92;;;9.90;;
35917;SDS011;22011;59.912;30.300;2022-12-18T01:47:25;16.35;;;8.88;;
35917;SDS011;22011;59.912;30.300;2022-12-18T01:49:56;19.23;;;9.90;;
35917;SDS011;22011;59.912;30.300;2022-12-18T01:52:27;17.73;;;9.57;;
35917;SDS011;22011;59.912;30.300;2022-12-18T01:54:57;21.40;;;9.75;;
35917;SDS011;22011;59.912;30.300;2022-12-18T01:57:27;12.40;;;8.00;;
35917;SDS011;22011;59.912;30.300;2022-12-18T01:59:57;14.93;;;7.97;;
35917;SDS011;22011;59.912;30.300;2022-12-18T02:02:40;17.65;;;9.52;;
35917;SDS011;22011;59.912;30.300;2022-12-18T02:05:09;16.20;;;9.63;;
35917;SDS011;22011;59.912;30.300;2022-12-18T02:07:42;18.23;;;10.38;;
35917;SDS011;22011;59.912;30.300;2022-12-18T02:10:14;17.42;;;10.43;;
35917;SDS011;22011;59.912;30.300;2022-12-18T02:12:48;17.88;;;9.85;;
35917;SDS011;22011;59.912;30.300;2022-12-18T02:15:24;15.88;;;10.25;;
35917;SDS011;22011;59.912;30.300;2022-12-18T02:18:00;17.73;;;9.80;;
35917;SDS011;22011;59.912;30.300;2022-12-18T02:20:33;22.23;;;10.32;;
35917;SDS011;22011;59.912;30.300;2022-12-18T02:23:06;18.65;;;10.90;;
35917;SDS011;22011;59.912;30.300;2022-12-18T02:28:34;19.67;;;10.65;;
35917;SDS011;22011;59.912;30.300;2022-12-18T02:31:07;17.92;;;10.38;;
35917;SDS011;22011;59.912;30.300;2022-12-18T02:33:39;18.00;;;10.80;;
35917;SDS011;22011;59.912;30.300;2022-12-18T02:36:09;15.23;;;10.13;;
35917;SDS011;22011;59.912;30.300;2022-12-18T02:38:37;15.35;;;9.32;;
35917;SDS011;22011;59.912;30.300;2022-12-18T02:41:12;19.65;;;10.98;;
35917;SDS011;22011;59.912;30.300;2022-12-18T02:43:46;18.45;;;10.63;;
35917;SDS011;22011;59.912;30.300;2022-12-18T02:46:25;19.83;;;11.25;;
35917;SDS011;22011;59.912;30.300;2022-12-18T02:49:08;21.80;;;11.05;;
35917;SDS011;22011;59.912;30.300;2022-12-18T02:51:44;20.77;;;11.40;;
35917;SDS011;22011;59.912;30.300;2022-12-18T02:57:19;20.65;;;11.85;;
35917;SDS011;22011;59.912;30.300;2022-12-18T02:59:54;19.67;;;12.02;;
35917;SDS011;22011;59.912;30.300;2022-12-18T03:02:26;19.20;;;11.23;;
35917;SDS011;22011;59.912;30.300;2022-12-18T03:05:01;19.10;;;10.73;;
35917;SDS011;22011;59.912;30.300;2022-12-18T03:07:36;19.70;;;11.07;;
35917;SDS011;22011;59.912;30.300;2022-12-18T03:10:11;23.17;;;10.95;;
35917;SDS011;22011;59.912;30.300;2022-12-18T03:12:46;19.50;;;10.98;;
35917;SDS011;22011;59.912;30.300;2022-12-18T03:15:20;18.73;;;10.93;;
35917;SDS011;22011;59.912;30.300;2022-12-18T03:18:01;20.20;;;12.02;;
35917;SDS011;22011;59.912;30.300;2022-12-18T03:20:31;21.17;;;11.68;;
35917;SDS011;22011;59.912;30.300;2022-12-18T03:23:03;22.92;;;11.75;;
35917;SDS011;22011;59.912;30.300;2022-12-18T03:25:35;23.45;;;11.85;;
35917;SDS011;22011;59.912;30.300;2022-12-18T03:28:07;27.67;;;12.70;;
35917;SDS011;22011;59.912;30.300;2022-12-18T03:30:40;21.40;;;11.98;;
35917;SDS011;22011;59.912;30.300;2022-12-18T03:33:10;24.90;;;13.95;;
35917;SDS011;22011;59.912;30.300;2022-12-18T03:35:45;27.00;;;13.18;;
35917;SDS011;22011;59.912;30.300;2022-12-18T03:38:13;23.65;;;12.65;;
35917;SDS011;22011;59.912;30.300;2022-12-18T03:40:47;23.73;;;12.45;;
35917;SDS011;22011;59.912;30.300;2022-12-18T03:43:25;25.25;;;12.75;;
35917;SDS011;22011;59.912;30.300;2022-12-18T03:46:02;20.40;;;11.50;;
35917;SDS011;22011;59.912;30.300;2022-12-18T03:48:36;21.13;;;13.02;;
35917;SDS011;22011;59.912;30.300;2022-12-18T03:51:13;23.20;;;11.57;;
35917;SDS011;22011;59.912;30.300;2022-12-18T03:53:50;21.30;;;11.80;;
35917;SDS011;22011;59.912;30.300;2022-12-18T03:56:29;22.20;;;13.38;;
35917;SDS011;22011;59.912;30.300;2022-12-18T03:59:02;20.25;;;11.90;;
35917;SDS011;22011;59.912;30.300;2022-12-18T04:01:32;21.67;;;12.02;;
35917;SDS011;22011;59.912;30.300;2022-12-18T04:04:02;24.95;;;12.25;;
35917;SDS011;22011;59.912;30.300;2022-12-18T04:06:35;22.90;;;12.50;;
35917;SDS011;22011;59.912;30.300;2022-12-18T04:09:03;21.48;;;13.38;;
35917;SDS011;22011;59.912;30.300;2022-12-18T04:11:35;23.35;;;13.18;;
35917;SDS011;22011;59.912;30.300;2022-12-18T04:14:05;21.00;;;11.98;;
35917;SDS011;22011;59.912;30.300;2022-12-18T04:16:33;23.60;;;12.50;;
35917;SDS011;22011;59.912;30.300;2022-12-18T04:19:06;26.20;;;13.23;;
35917;SDS011;22011;59.912;30.300;2022-12-18T04:21:38;23.50;;;13.45;;
35917;SDS011;22011;59.912;30.300;2022-12-18T04:24:06;20.80;;;12.35;;
35917;SDS011;22011;59.912;30.300;2022-12-18T04:26:37;24.50;;;13.98;;
35917;SDS011;22011;59.912;30.300;2022-12-18T04:29:18;26.38;;;13.13;;
35917;SDS011;22011;59.912;30.300;2022-12-18T04:31:47;25.52;;;12.82;;
35917;SDS011;22011;59.912;30.300;2022-12-18T04:34:15;24.75;;;13.55;;
35917;SDS011;22011;59.912;30.300;2022-12-18T04:36:49;23.48;;;13.35;;
35917;SDS011;22011;59.912;30.300;2022-12-18T04:39:17;25.58;;;13.50;;
35917;SDS011;22011;59.912;30.300;2022-12-18T04:41:45;26.30;;;13.35;;
35917;SDS011;22011;59.912;30.300;2022-12-18T04:44:13;21.25;;;12.70;;
35917;SDS011;22011;59.912;30.300;2022-12-18T04:46:42;23.63;;;12.35;;
35917;SDS011;22011;59.912;30.300;2022-12-18T04:49:10;24.17;;;13.10;;
35917;SDS011;22011;59.912;30.300;2022-12-18T04:51:38;24.88;;;12.68;;
35917;SDS011;22011;59.912;30.300;2022-12-18T04:54:05;27.50;;;14.52;;
35917;SDS011;22011;59.912;30.300;2022-12-18T04:56:33;26.83;;;13.05;;
35917;SDS011;22011;59.912;30.300;2022-12-18T04:59:00;23.33;;;12.82;;
35917;SDS011;22011;59.912;30.300;2022-12-18T05:01:28;24.27;;;13.75;;
35917;SDS011;22011;59.912;30.300;2022-12-18T05:03:57;21.92;;;13.60;;
35917;SDS011;22011;59.912;30.300;2022-12-18T05:06:24;22.90;;;13.32;;
35917;SDS011;22011;59.912;30.300;2022-12-18T05:08:52;22.48;;;13.63;;
35917;SDS011;22011;59.912;30.300;2022-12-18T05:11:19;19.00;;;13.50;;
35917;SDS011;22011;59.912;30.300;2022-12-18T05:13:47;23.75;;;13.32;;
35917;SDS011;22011;59.912;30.300;2022-12-18T05:16:14;26.23;;;14.07;;
35917;SDS011;22011;59.912;30.300;2022-12-18T05:18:42;19.60;;;12.98;;
35917;SDS011;22011;59.912;30.300;2022-12-18T05:21:11;21.65;;;12.70;;
35917;SDS011;22011;59.912;30.300;2022-12-18T05:23:39;26.70;;;14.15;;
35917;SDS011;22011;59.912;30.300;2022-12-18T05:26:06;25.92;;;13.70;;
35917;SDS011;22011;59.912;30.300;2022-12-18T05:28:34;23.55;;;13.57;;
35917;SDS011;22011;59.912;30.300;2022-12-18T05:31:03;21.38;;;14.07;;
35917;SDS011;22011;59.912;30.300;2022-12-18T05:33:32;21.00;;;12.57;;
35917;SDS011;22011;59.912;30.300;2022-12-18T05:36:01;27.08;;;13.48;;
35917;SDS011;22011;59.912;30.300;2022-12-18T05:38:31;20.70;;;11.93;;
35917;SDS011;22011;59.912;30.300;2022-12-18T05:41:00;17.25;;;10.93;;
35917;SDS011;22011;59.912;30.300;2022-12-18T05:43:28;19.83;;;11.70;;
35917;SDS011;22011;59.912;30.300;2022-12-18T05:45:56;19.85;;;11.38;;
35917;SDS011;22011;59.912;30.300;2022-12-18T05:48:24;20.30;;;11.98;;
35917;SDS011;22011;59.912;30.300;2022-12-18T05:50:51;18.45;;;11.45;;
35917;SDS011;22011;59.912;30.300;2022-12-18T05:53:19;18.38;;;10.50;;
35917;SDS011;22011;59.912;30.300;2022-12-18T05:55:48;21.50;;;11.85;;
35917;SDS011;22011;59.912;30.300;2022-12-18T05:58:16;17.52;;;11.35;;
35917;SDS011;22011;59.912;30.300;2022-12-18T06:00:45;18.90;;;10.73;;
35917;SDS011;22011;59.912;30.300;2022-12-18T06:03:13;19.15;;;11.85;;
35917;SDS011;22011;59.912;30.300;2022-12-18T06:05:41;16.50;;;9.68;;
35917;SDS011;22011;59.912;30.300;2022-12-18T06:10:38;22.02;;;9.95;;
35917;SDS011;22011;59.912;30.300;2022-12-18T06:13:07;18.02;;;10.48;;
35917;SDS011;22011;59.912;30.300;2022-12-18T06:15:35;16.70;;;10.60;;
35917;SDS011;22011;59.912;30.300;2022-12-18T06:18:04;22.83;;;10.63;;
35917;SDS011;22011;59.912;30.300;2022-12-18T06:20:32;20.20;;;10.73;;
35917;SDS011;22011;59.912;30.300;2022-12-18T06:23:05;20.38;;;11.15;;
35917;SDS011;22011;59.912;30.300;2022-12-18T06:25:33;25.13;;;12.43;;
35917;SDS011;22011;59.912;30.300;2022-12-18T06:28:00;19.40;;;10.95;;
35917;SDS011;22011;59.912;30.300;2022-12-18T06:30:29;21.83;;;12.32;;
35917;SDS011;22011;59.912;30.300;2022-12-18T06:32:57;20.90;;;10.88;;
35917;SDS011;22011;59.912;30.300;2022-12-18T06:35:25;19.20;;;10.40;;
35917;SDS011;22011;59.912;30.300;2022-12-18T06:37:52;27.08;;;11.35;;
35917;SDS011;22011;59.912;30.300;2022-12-18T06:40:20;18.98;;;10.18;;
35917;SDS011;22011;59.912;30.300;2022-12-18T06:42:47;25.33;;;12.90;;
35917;SDS011;22011;59.912;30.300;2022-12-18T06:45:15;33.85;;;15.90;;
35917;SDS011;22011;59.912;30.300;2022-12-18T06:47:44;33.22;;;17.23;;
35917;SDS011;22011;59.912;30.300;2022-12-18T06:50:11;36.20;;;14.82;;
35917;SDS011;22011;59.912;30.300;2022-12-18T06:52:39;25.67;;;14.18;;
35917;SDS011;22011;59.912;30.300;2022-12-18T06:55:08;24.50;;;13.50;;
35917;SDS011;22011;59.912;30.300;2022-12-18T06:57:36;21.63;;;12.52;;
35917;SDS011;22011;59.912;30.300;2022-12-18T07:00:05;19.20;;;11.10;;
35917;SDS011;22011;59.912;30.300;2022-12-18T07:02:33;27.57;;;12.43;;
35917;SDS011;22011;59.912;30.300;2022-12-18T07:05:02;21.55;;;12.18;;
35917;SDS011;22011;59.912;30.300;2022-12-18T07:07:30;25.77;;;13.02;;
35917;SDS011;22011;59.912;30.300;2022-12-18T07:09:58;21.40;;;11.48;;
35917;SDS011;22011;59.912;30.300;2022-12-18T07:12:26;23.50;;;12.20;;
35917;SDS011;22011;59.912;30.300;2022-12-18T07:14:53;24.55;;;12.73;;
35917;SDS011;22011;59.912;30.300;2022-12-18T07:17:21;23.52;;;12.02;;
35917;SDS011;22011;59.912;30.300;2022-12-18T07:19:48;26.02;;;13.10;;
35917;SDS011;22011;59.912;30.300;2022-12-18T07:22:17;21.80;;;12.95;;
35917;SDS011;22011;59.912;30.300;2022-12-18T07:24:45;26.77;;;11.20;;
35917;SDS011;22011;59.912;30.300;2022-12-18T07:27:12;20.63;;;11.15;;
35917;SDS011;22011;59.912;30.300;2022-12-18T07:29:40;22.80;;;10.85;;
35917;SDS011;22011;59.912;30.300;2022-12-18T07:32:07;21.10;;;10.65;;
35917;SDS011;22011;59.912;30.300;2022-12-18T07:34:35;25.08;;;11.98;;
35917;SDS011;22011;59.912;30.300;2022-12-18T07:37:02;20.25;;;10.65;;
35917;SDS011;22011;59.912;30.300;2022-12-18T07:39:31;25.08;;;12.38;;
35917;SDS011;22011;59.912;30.300;2022-12-18T07:41:59;22.17;;;11.27;;
35917;SDS011;22011;59.912;30.300;2022-12-18T07:44:44;22.38;;;11.10;;
35917;SDS011;22011;59.912;30.300;2022-12-18T07:47:12;24.00;;;11.93;;
35917;SDS011;22011;59.912;30.300;2022-12-18T07:49:39;25.08;;;12.48;;
35917;SDS011;22011;59.912;30.300;2022-12-18T07:52:07;28.75;;;13.85;;
35917;SDS011;22011;59.912;30.300;2022-12-18T07:54:36;29.83;;;12.77;;
35917;SDS011;22011;59.912;30.300;2022-12-18T07:57:04;29.40;;;13.73;;
35917;SDS011;22011;59.912;30.300;2022-12-18T07:59:31;29.35;;;14.43;;
35917;SDS011;22011;59.912;30.300;2022-12-18T08:01:59;34.35;;;16.00;;
35917;SDS011;22011;59.912;30.300;2022-12-18T08:04:26;30.65;;;16.02;;
35917;SDS011;22011;59.912;30.300;2022-12-18T08:06:54;35.65;;;15.95;;
35917;SDS011;22011;59.912;30.300;2022-12-18T08:09:22;34.67;;;18.35;;
35917;SDS011;22011;59.912;30.300;2022-12-18T08:11:51;38.90;;;18.27;;
35917;SDS011;22011;59.912;30.300;2022-12-18T08:14:18;40.45;;;18.85;;
35917;SDS011;22011;59.912;30.300;2022-12-18T08:16:46;32.38;;;17.17;;
35917;SDS011;22011;59.912;30.300;2022-12-18T08:19:13;50.80;;;19.75;;
35917;SDS011;22011;59.912;30.300;2022-12-18T08:21:41;42.88;;;18.80;;
35917;SDS011;22011;59.912;30.300;2022-12-18T08:24:08;41.28;;;18.85;;
35917;SDS011;22011;59.912;30.300;2022-12-18T08:26:36;39.15;;;18.00;;
35917;SDS011;22011;59.912;30.300;2022-12-18T08:29:05;30.80;;;15.18;;
35917;SDS011;22011;59.912;30.300;2022-12-18T08:31:32;32.33;;;15.00;;
35917;SDS011;22011;59.912;30.300;2022-12-18T08:34:00;27.38;;;14.20;;
35917;SDS011;22011;59.912;30.300;2022-12-18T08:36:27;30.70;;;15.57;;
35917;SDS011;22011;59.912;30.300;2022-12-18T08:38:55;37.53;;;15.98;;
35917;SDS011;22011;59.912;30.300;2022-12-18T08:41:24;25.50;;;12.65;;
35917;SDS011;22011;59.912;30.300;2022-12-18T08:43:51;28.75;;;13.88;;
35917;SDS011;22011;59.912;30.300;2022-12-18T08:46:39;35.67;;;16.17;;
35917;SDS011;22011;59.912;30.300;2022-12-18T08:49:08;29.60;;;13.73;;
35917;SDS011;22011;59.912;30.300;2022-12-18T08:51:37;29.73;;;11.80;;
35917;SDS011;22011;59.912;30.300;2022-12-18T08:54:05;25.35;;;10.95;;
35917;SDS011;22011;59.912;30.300;2022-12-18T08:56:33;18.67;;;10.45;;
35917;SDS011;22011;59.912;30.300;2022-12-18T08:59:01;25.10;;;11.10;;
35917;SDS011;22011;59.912;30.300;2022-12-18T09:01:30;23.55;;;12.95;;
35917;SDS011;22011;59.912;30.300;2022-12-18T09:03:59;27.77;;;12.73;;
35917;SDS011;22011;59.912;30.300;2022-12-18T09:06:26;23.58;;;11.95;;
35917;SDS011;22011;59.912;30.300;2022-12-18T09:08:54;21.48;;;11.20;;
35917;SDS011;22011;59.912;30.300;2022-12-18T09:11:22;24.83;;;11.05;;
35917;SDS011;22011;59.912;30.300;2022-12-18T09:13:51;16.88;;;10.05;;
35917;SDS011;22011;59.912;30.300;2022-12-18T09:16:19;20.58;;;10.07;;
35917;SDS011;22011;59.912;30.300;2022-12-18T09:18:47;18.88;;;10.25;;
35917;SDS011;22011;59.912;30.300;2022-12-18T09:21:17;17.08;;;9.30;;
35917;SDS011;22011;59.912;30.300;2022-12-18T09:23:48;17.20;;;8.75;;
35917;SDS011;22011;59.912;30.300;2022-12-18T09:26:17;18.52;;;9.27;;
35917;SDS011;22011;59.912;30.300;2022-12-18T09:28:44;14.85;;;7.93;;
35917;SDS011;22011;59.912;30.300;2022-12-18T09:31:12;12.27;;;7.35;;
35917;SDS011;22011;59.912;30.300;2022-12-18T09:33:40;13.52;;;7.57;;
35917;SDS011;22011;59.912;30.300;2022-12-18T09:36:09;17.23;;;7.75;;
35917;SDS011;22011;59.912;30.300;2022-12-18T09:41:15;15.82;;;7.38;;
35917;SDS011;22011;59.912;30.300;2022-12-18T09:43:50;21.45;;;9.57;;
35917;SDS011;22011;59.912;30.300;2022-12-18T09:46:24;14.10;;;8.63;;
35917;SDS011;22011;59.912;30.300;2022-12-18T09:48:56;15.85;;;8.90;;
35917;SDS011;22011;59.912;30.300;2022-12-18T09:51:28;18.70;;;7.38;;
35917;SDS011;22011;59.912;30.300;2022-12-18T09:54:01;14.23;;;7.32;;
35917;SDS011;22011;59.912;30.300;2022-12-18T09:56:35;13.70;;;8.23;;
35917;SDS011;22011;59.912;30.300;2022-12-18T09:59:09;17.60;;;8.23;;
35917;SDS011;22011;59.912;30.300;2022-12-18T10:01:47;12.23;;;7.38;;
35917;SDS011;22011;59.912;30.300;2022-12-18T10:04:14;12.25;;;6.30;;
35917;SDS011;22011;59.912;30.300;2022-12-18T10:06:43;15.38;;;7.30;;
35917;SDS011;22011;59.912;30.300;2022-12-18T10:09:20;12.32;;;7.40;;
35917;SDS011;22011;59.912;30.300;2022-12-18T10:11:58;18.23;;;6.95;;
35917;SDS011;22011;59.912;30.300;2022-12-18T10:14:36;14.57;;;6.80;;
35917;SDS011;22011;59.912;30.300;2022-12-18T10:17:13;11.25;;;6.72;;
35917;SDS011;22011;59.912;30.300;2022-12-18T10:19:50;13.38;;;7.95;;
35917;SDS011;22011;59.912;30.300;2022-12-18T10:22:25;16.48;;;8.32;;
35917;SDS011;22011;59.912;30.300;2022-12-18T10:25:14;16.90;;;8.07;;
35917;SDS011;22011;59.912;30.300;2022-12-18T10:27:47;15.13;;;7.25;;
35917;SDS011;22011;59.912;30.300;2022-12-18T10:30:19;18.48;;;7.78;;
35917;SDS011;22011;59.912;30.300;2022-12-18T10:32:48;15.00;;;7.57;;
35917;SDS011;22011;59.912;30.300;2022-12-18T10:35:17;15.05;;;7.18;;
35917;SDS011;22011;59.912;30.300;2022-12-18T10:37:59;13.13;;;7.50;;
35917;SDS011;22011;59.912;30.300;2022-12-18T10:40:47;15.38;;;7.78;;
35917;SDS011;22011;59.912;30.300;2022-12-18T10:43:19;12.25;;;7.05;;
35917;SDS011;22011;59.912;30.300;2022-12-18T10:46:03;12.18;;;6.13;;
35917;SDS011;22011;59.912;30.300;2022-12-18T10:48:40;13.95;;;6.88;;
35917;SDS011;22011;59.912;30.300;2022-12-18T10:51:20;13.82;;;6.55;;
35917;SDS011;22011;59.912;30.300;2022-12-18T10:53:56;13.88;;;6.50;;
35917;SDS011;22011;59.912;30.300;2022-12-18T10:56:28;11.60;;;5.90;;
35917;SDS011;22011;59.912;30.300;2022-12-18T10:58:59;12.35;;;6.53;;
35917;SDS011;22011;59.912;30.300;2022-12-18T11:01:28;12.05;;;6.60;;
35917;SDS011;22011;59.912;30.300;2022-12-18T11:04:15;16.90;;;6.75;;
35917;SDS011;22011;59.912;30.300;2022-12-18T11:06:56;10.73;;;6.82;;
35917;SDS011;22011;59.912;30.300;2022-12-18T11:09:25;11.75;;;6.50;;
35917;SDS011;22011;59.912;30.300;2022-12-18T11:11:56;12.90;;;7.70;;
35917;SDS011;22011;59.912;30.300;2022-12-18T11:14:26;19.17;;;8.07;;
35917;SDS011;22011;59.912;30.300;2022-12-18T11:16:56;13.50;;;7.30;;
35917;SDS011;22011;59.912;30.300;2022-12-18T11:21:56;14.57;;;6.97;;
35917;SDS011;22011;59.912;30.300;2022-12-18T11:24:26;14.80;;;7.70;;
35917;SDS011;22011;59.912;30.300;2022-12-18T11:27:00;16.77;;;7.90;;
35917;SDS011;22011;59.912;30.300;2022-12-18T11:29:31;13.10;;;7.78;;
35917;SDS011;22011;59.912;30.300;2022-12-18T11:34:59;19.08;;;8.55;;
35917;SDS011;22011;59.912;30.300;2022-12-18T11:37:31;19.92;;;8.80;;
35917;SDS011;22011;59.912;30.300;2022-12-18T11:40:01;18.65;;;9.15;;
35917;SDS011;22011;59.912;30.300;2022-12-18T11:42:37;16.95;;;9.35;;
35917;SDS011;22011;59.912;30.300;2022-12-18T11:45:18;16.38;;;8.70;;
35917;SDS011;22011;59.912;30.300;2022-12-18T11:47:52;21.27;;;8.75;;
35917;SDS011;22011;59.912;30.300;2022-12-18T11:50:25;20.08;;;10.15;;
35917;SDS011;22011;59.912;30.300;2022-12-18T11:52:56;24.83;;;9.40;;
35917;SDS011;22011;59.912;30.300;2022-12-18T11:55:27;19.55;;;9.43;;
35917;SDS011;22011;59.912;30.300;2022-12-18T11:58:03;15.02;;;7.97;;
35917;SDS011;22011;59.912;30.300;2022-12-18T12:00:41;18.40;;;9.90;;
35917;SDS011;22011;59.912;30.300;2022-12-18T12:03:21;18.08;;;9.73;;
35917;SDS011;22011;59.912;30.300;2022-12-18T12:06:06;17.42;;;9.82;;
35917;SDS011;22011;59.912;30.300;2022-12-18T12:08:44;20.88;;;8.38;;
35917;SDS011;22011;59.912;30.300;2022-12-18T12:11:35;15.55;;;9.63;;
35917;SDS011;22011;59.912;30.300;2022-12-18T12:14:18;18.45;;;9.55;;
35917;SDS011;22011;59.912;30.300;2022-12-18T12:16:58;20.77;;;10.40;;
35917;SDS011;22011;59.912;30.300;2022-12-18T12:19:35;22.60;;;9.90;;
35917;SDS011;22011;59.912;30.300;2022-12-18T12:22:10;21.60;;;10.73;;
35917;SDS011;22011;59.912;30.300;2022-12-18T12:24:48;23.33;;;10.85;;
35917;SDS011;22011;59.912;30.300;2022-12-18T12:27:26;21.17;;;10.75;;
35917;SDS011;22011;59.912;30.300;2022-12-18T12:30:07;23.83;;;10.52;;
35917;SDS011;22011;59.912;30.300;2022-12-18T12:32:41;22.23;;;11.23;;
35917;SDS011;22011;59.912;30.300;2022-12-18T12:35:21;24.73;;;11.07;;
35917;SDS011;22011;59.912;30.300;2022-12-18T12:38:00;24.95;;;11.18;;
35917;SDS011;22011;59.912;30.300;2022-12-18T12:40:34;21.95;;;10.65;;
35917;SDS011;22011;59.912;30.300;2022-12-18T12:43:10;22.80;;;9.75;;
35917;SDS011;22011;59.912;30.300;2022-12-18T12:45:48;19.40;;;10.60;;
35917;SDS011;22011;59.912;30.300;2022-12-18T12:48:23;21.38;;;11.18;;
35917;SDS011;22011;59.912;30.300;2022-12-18T12:51:01;16.48;;;9.93;;
35917;SDS011;22011;59.912;30.300;2022-12-18T12:53:34;21.35;;;10.85;;
35917;SDS011;22011;59.912;30.300;2022-12-18T12:58:34;21.15;;;10.52;;
35917;SDS011;22011;59.912;30.300;2022-12-18T13:01:12;27.58;;;11.57;;
35917;SDS011;22011;59.912;30.300;2022-12-18T13:03:52;24.17;;;11.25;;
35917;SDS011;22011;59.912;30.300;2022-12-18T13:06:29;28.02;;;11.70;;
35917;SDS011;22011;59.912;30.300;2022-12-18T13:09:04;23.63;;;11.30;;
35917;SDS011;22011;59.912;30.300;2022-12-18T13:11:34;25.05;;;10.95;;
35917;SDS011;22011;59.912;30.300;2022-12-18T13:14:23;25.90;;;10.87;;
35917;SDS011;22011;59.912;30.300;2022-12-18T13:19:51;22.40;;;9.23;;
35917;SDS011;22011;59.912;30.300;2022-12-18T13:22:31;21.58;;;10.32;;
35917;SDS011;22011;59.912;30.300;2022-12-18T13:25:01;21.88;;;9.60;;
35917;SDS011;22011;59.912;30.300;2022-12-18T13:36:12;21.75;;;10.02;;
35917;SDS011;22011;59.912;30.300;2022-12-18T13:41:50;23.15;;;10.95;;
35917;SDS011;22011;59.912;30.300;2022-12-18T13:44:24;19.50;;;9.75;;
35917;SDS011;22011;59.912;30.300;2022-12-18T13:46:57;24.13;;;12.65;;
35917;SDS011;22011;59.912;30.300;2022-12-18T13:49:28;25.60;;;11.55;;
35917;SDS011;22011;59.912;30.300;2022-12-18T13:52:03;27.95;;;11.20;;
35917;SDS011;22011;59.912;30.300;2022-12-18T13:54:43;25.20;;;10.38;;
35917;SDS011;22011;59.912;30.300;2022-12-18T13:57:24;23.00;;;9.98;;
35917;SDS011;22011;59.912;30.300;2022-12-18T13:59:53;19.23;;;10.02;;
35917;SDS011;22011;59.912;30.300;2022-12-18T14:02:21;19.65;;;10.70;;
35917;SDS011;22011;59.912;30.300;2022-12-18T14:04:51;21.00;;;9.60;;
35917;SDS011;22011;59.912;30.300;2022-12-18T14:07:20;22.95;;;9.65;;
35917;SDS011;22011;59.912;30.300;2022-12-18T14:09:49;17.15;;;8.63;;
35917;SDS011;22011;59.912;30.300;2022-12-18T14:12:22;24.30;;;9.40;;
35917;SDS011;22011;59.912;30.300;2022-12-18T14:15:11;19.50;;;9.55;;
35917;SDS011;22011;59.912;30.300;2022-12-18T14:17:50;20.33;;;10.35;;
35917;SDS011;22011;59.912;30.300;2022-12-18T14:20:20;18.73;;;10.18;;
35917;SDS011;22011;59.912;30.300;2022-12-18T14:25:18;15.27;;;8.73;;
35917;SDS011;22011;59.912;30.300;2022-12-18T14:27:50;16.25;;;9.27;;
35917;SDS011;22011;59.912;30.300;2022-12-18T14:30:28;19.23;;;11.30;;
35917;SDS011;22011;59.912;30.300;2022-12-18T14:33:01;25.75;;;10.27;;
35917;SDS011;22011;59.912;30.300;2022-12-18T14:35:32;21.38;;;10.57;;
35917;SDS011;22011;59.912;30.300;2022-12-18T14:40:57;16.95;;;8.75;;
35917;SDS011;22011;59.912;30.300;2022-12-18T14:43:25;16.30;;;9.50;;
35917;SDS011;22011;59.912;30.300;2022-12-18T14:45:55;21.40;;;11.27;;
35917;SDS011;22011;59.912;30.300;2022-12-18T14:48:30;24.77;;;10.05;;
35917;SDS011;22011;59.912;30.300;2022-12-18T14:51:06;26.83;;;11.18;;
35917;SDS011;22011;59.912;30.300;2022-12-18T14:53:42;28.20;;;11.10;;
35917;SDS011;22011;59.912;30.300;2022-12-18T14:56:13;28.90;;;11.90;;
35917;SDS011;22011;59.912;30.300;2022-12-18T14:58:44;34.75;;;12.80;;
35917;SDS011;22011;59.912;30.300;2022-12-18T15:01:24;20.00;;;9.77;;
35917;SDS011;22011;59.912;30.300;2022-12-18T15:03:54;21.75;;;8.95;;
35917;SDS011;22011;59.912;30.300;2022-12-18T15:09:20;18.92;;;7.10;;
35917;SDS011;22011;59.912;30.300;2022-12-18T15:11:54;14.93;;;7.55;;
35917;SDS011;22011;59.912;30.300;2022-12-18T15:14:28;14.48;;;7.65;;
35917;SDS011;22011;59.912;30.300;2022-12-18T15:17:00;19.15;;;7.75;;
35917;SDS011;22011;59.912;30.300;2022-12-18T15:19:33;12.35;;;5.82;;
35917;SDS011;22011;59.912;30.300;2022-12-18T15:22:11;12.18;;;6.45;;